sensor_id;sensor_type;location;lat;lon;timestamp;P1;durP1;ratioP1;P2;durP2;ratioP2
55655;SDS011;41530;52.382;5.270;2023-02-28T00:00:49;1.13;;;0.63;;
55655;SDS011;41530;52.382;5.270;2023-02-28T00:03:15;3.33;;;0.73;;
55655;SDS011;41530;52.382;5.270;2023-02-28T00:05:42;1.30;;;0.70;;
55655;SDS011;41530;52.382;5.270;2023-02-28T00:08:08;2.53;;;0.55;;
55655;SDS011;41530;52.382;5.270;2023-02-28T00:10:35;1.73;;;0.70;;
55655;SDS011;41530;52.382;5.270;2023-02-28T00:13:03;0.90;;;0.45;;
55655;SDS011;41530;52.382;5.270;2023-02-28T00:15:31;1.05;;;0.60;;
55655;SDS011;41530;52.382;5.270;2023-02-28T00:17:58;0.95;;;0.68;;
55655;SDS011;41530;52.382;5.270;2023-02-28T00:20:25;0.55;;;0.50;;
55655;SDS011;41530;52.382;5.270;2023-02-28T00:22:52;3.45;;;0.60;;
55655;SDS011;41530;52.382;5.270;2023-02-28T00:25:21;1.55;;;0.63;;
55655;SDS011;41530;52.382;5.270;2023-02-28T00:27:49;1.25;;;0.60;;
55655;SDS011;41530;52.382;5.270;2023-02-28T00:30:17;1.17;;;0.70;;
55655;SDS011;41530;52.382;5.270;2023-02-28T00:32:45;1.38;;;0.65;;
55655;SDS011;41530;52.382;5.270;2023-02-28T00:35:12;0.80;;;0.60;;
55655;SDS011;41530;52.382;5.270;2023-02-28T00:37:39;2.53;;;0.85;;
55655;SDS011;41530;52.382;5.270;2023-02-28T00:40:06;0.95;;;0.65;;
55655;SDS011;41530;52.382;5.270;2023-02-28T00:42:34;1.35;;;0.80;;
55655;SDS011;41530;52.382;5.270;2023-02-28T00:45:01;1.17;;;0.60;;
55655;SDS011;41530;52.382;5.270;2023-02-28T00:47:30;1.63;;;0.75;;
55655;SDS011;41530;52.382;5.270;2023-02-28T00:49:57;1.40;;;0.57;;
55655;SDS011;41530;52.382;5.270;2023-02-28T00:52:23;2.90;;;1.02;;
55655;SDS011;41530;52.382;5.270;2023-02-28T00:54:50;1.25;;;0.60;;
55655;SDS011;41530;52.382;5.270;2023-02-28T00:57:17;1.55;;;0.70;;
55655;SDS011;41530;52.382;5.270;2023-02-28T00:59:44;1.17;;;0.50;;
55655;SDS011;41530;52.382;5.270;2023-02-28T01:02:10;1.40;;;0.60;;
55655;SDS011;41530;52.382;5.270;2023-02-28T01:04:37;1.60;;;0.65;;
55655;SDS011;41530;52.382;5.270;2023-02-28T01:07:03;1.67;;;0.50;;
55655;SDS011;41530;52.382;5.270;2023-02-28T01:09:30;2.67;;;0.60;;
55655;SDS011;41530;52.382;5.270;2023-02-28T01:11:57;2.38;;;0.85;;
55655;SDS011;41530;52.382;5.270;2023-02-28T01:14:23;1.00;;;0.70;;
55655;SDS011;41530;52.382;5.270;2023-02-28T01:16:50;1.63;;;0.60;;
55655;SDS011;41530;52.382;5.270;2023-02-28T01:19:17;1.90;;;0.70;;
55655;SDS011;41530;52.382;5.270;2023-02-28T01:21:44;1.38;;;0.50;;
55655;SDS011;41530;52.382;5.270;2023-02-28T01:24:10;1.38;;;0.70;;
55655;SDS011;41530;52.382;5.270;2023-02-28T01:26:37;0.95;;;0.50;;
55655;SDS011;41530;52.382;5.270;2023-02-28T01:29:04;1.50;;;0.68;;
55655;SDS011;41530;52.382;5.270;2023-02-28T01:31:30;2.20;;;0.80;;
55655;SDS011;41530;52.382;5.270;2023-02-28T01:33:57;2.00;;;0.70;;
55655;SDS011;41530;52.382;5.270;2023-02-28T01:36:24;1.27;;;0.52;;
55655;SDS011;41530;52.382;5.270;2023-02-28T01:38:52;1.48;;;0.60;;
55655;SDS011;41530;52.382;5.270;2023-02-28T01:41:22;2.10;;;0.60;;
55655;SDS011;41530;52.382;5.270;2023-02-28T01:43:56;1.25;;;0.47;;
55655;SDS011;41530;52.382;5.270;2023-02-28T01:46:25;1.35;;;0.52;;
55655;SDS011;41530;52.382;5.270;2023-02-28T01:51:33;1.13;;;0.60;;
55655;SDS011;41530;52.382;5.270;2023-02-28T01:54:25;0.60;;;0.40;;
55655;SDS011;41530;52.382;5.270;2023-02-28T01:57:00;3.30;;;0.75;;
55655;SDS011;41530;52.382;5.270;2023-02-28T01:59:35;0.63;;;0.43;;
55655;SDS011;41530;52.382;5.270;2023-02-28T02:02:12;1.30;;;0.60;;
55655;SDS011;41530;52.382;5.270;2023-02-28T02:04:43;2.30;;;0.77;;
55655;SDS011;41530;52.382;5.270;2023-02-28T02:07:17;2.05;;;0.60;;
55655;SDS011;41530;52.382;5.270;2023-02-28T02:09:44;1.13;;;0.40;;
55655;SDS011;41530;52.382;5.270;2023-02-28T02:12:18;1.02;;;0.60;;
55655;SDS011;41530;52.382;5.270;2023-02-28T02:17:28;2.10;;;0.63;;
55655;SDS011;41530;52.382;5.270;2023-02-28T02:34:54;2.03;;;0.63;;
55655;SDS011;41530;52.382;5.270;2023-02-28T02:37:25;1.38;;;0.57;;
55655;SDS011;41530;52.382;5.270;2023-02-28T02:40:16;1.25;;;0.43;;
55655;SDS011;41530;52.382;5.270;2023-02-28T02:47:55;1.08;;;0.52;;
55655;SDS011;41530;52.382;5.270;2023-02-28T02:50:27;2.08;;;0.80;;
55655;SDS011;41530;52.382;5.270;2023-02-28T02:53:00;1.02;;;0.50;;
55655;SDS011;41530;52.382;5.270;2023-02-28T02:55:29;1.40;;;0.50;;
55655;SDS011;41530;52.382;5.270;2023-02-28T02:58:04;1.40;;;0.70;;
55655;SDS011;41530;52.382;5.270;2023-02-28T03:00:35;1.75;;;0.57;;
55655;SDS011;41530;52.382;5.270;2023-02-28T03:03:08;4.45;;;0.63;;
55655;SDS011;41530;52.382;5.270;2023-02-28T03:05:49;1.48;;;0.57;;
55655;SDS011;41530;52.382;5.270;2023-02-28T03:08:17;0.95;;;0.47;;
55655;SDS011;41530;52.382;5.270;2023-02-28T03:10:45;1.63;;;0.70;;
55655;SDS011;41530;52.382;5.270;2023-02-28T03:21:20;2.88;;;0.52;;
55655;SDS011;41530;52.382;5.270;2023-02-28T03:23:52;1.25;;;0.60;;
55655;SDS011;41530;52.382;5.270;2023-02-28T03:26:29;1.85;;;0.63;;
55655;SDS011;41530;52.382;5.270;2023-02-28T03:29:33;2.15;;;0.55;;
55655;SDS011;41530;52.382;5.270;2023-02-28T03:37:40;1.58;;;0.55;;
55655;SDS011;41530;52.382;5.270;2023-02-28T03:40:14;4.35;;;0.77;;
55655;SDS011;41530;52.382;5.270;2023-02-28T03:42:48;0.47;;;0.40;;
55655;SDS011;41530;52.382;5.270;2023-02-28T03:45:22;0.98;;;0.50;;
55655;SDS011;41530;52.382;5.270;2023-02-28T03:50:23;1.55;;;0.57;;
55655;SDS011;41530;52.382;5.270;2023-02-28T03:55:52;1.45;;;0.65;;
55655;SDS011;41530;52.382;5.270;2023-02-28T04:01:15;1.52;;;0.57;;
55655;SDS011;41530;52.382;5.270;2023-02-28T04:03:47;2.72;;;0.90;;
55655;SDS011;41530;52.382;5.270;2023-02-28T04:06:15;0.82;;;0.52;;
55655;SDS011;41530;52.382;5.270;2023-02-28T04:08:44;2.00;;;0.60;;
55655;SDS011;41530;52.382;5.270;2023-02-28T04:13:40;1.02;;;0.40;;
55655;SDS011;41530;52.382;5.270;2023-02-28T04:16:07;0.73;;;0.50;;
55655;SDS011;41530;52.382;5.270;2023-02-28T04:18:49;0.73;;;0.50;;
55655;SDS011;41530;52.382;5.270;2023-02-28T04:21:16;2.25;;;0.52;;
55655;SDS011;41530;52.382;5.270;2023-02-28T04:23:46;2.55;;;0.60;;
55655;SDS011;41530;52.382;5.270;2023-02-28T04:26:13;3.08;;;0.85;;
55655;SDS011;41530;52.382;5.270;2023-02-28T04:28:39;1.48;;;0.50;;
55655;SDS011;41530;52.382;5.270;2023-02-28T04:31:06;1.30;;;0.57;;
55655;SDS011;41530;52.382;5.270;2023-02-28T04:33:33;1.65;;;0.90;;
55655;SDS011;41530;52.382;5.270;2023-02-28T04:36:00;1.05;;;0.70;;
55655;SDS011;41530;52.382;5.270;2023-02-28T04:38:32;0.68;;;0.60;;
55655;SDS011;41530;52.382;5.270;2023-02-28T04:41:00;0.77;;;0.47;;
55655;SDS011;41530;52.382;5.270;2023-02-28T04:43:27;1.52;;;0.60;;
55655;SDS011;41530;52.382;5.270;2023-02-28T04:45:57;1.77;;;0.70;;
55655;SDS011;41530;52.382;5.270;2023-02-28T04:48:27;1.20;;;0.55;;
55655;SDS011;41530;52.382;5.270;2023-02-28T04:50:55;2.47;;;0.52;;
55655;SDS011;41530;52.382;5.270;2023-02-28T04:53:27;3.40;;;0.55;;
55655;SDS011;41530;52.382;5.270;2023-02-28T04:55:55;1.58;;;0.70;;
55655;SDS011;41530;52.382;5.270;2023-02-28T04:58:22;1.02;;;0.55;;
55655;SDS011;41530;52.382;5.270;2023-02-28T05:00:52;1.88;;;0.60;;
55655;SDS011;41530;52.382;5.270;2023-02-28T05:03:19;2.33;;;0.70;;
55655;SDS011;41530;52.382;5.270;2023-02-28T05:05:48;2.22;;;0.65;;
55655;SDS011;41530;52.382;5.270;2023-02-28T05:08:14;0.85;;;0.68;;
55655;SDS011;41530;52.382;5.270;2023-02-28T05:10:41;0.70;;;0.60;;
55655;SDS011;41530;52.382;5.270;2023-02-28T05:13:09;2.17;;;0.85;;
55655;SDS011;41530;52.382;5.270;2023-02-28T05:15:38;0.90;;;0.60;;
55655;SDS011;41530;52.382;5.270;2023-02-28T05:18:04;3.13;;;0.80;;
55655;SDS011;41530;52.382;5.270;2023-02-28T05:20:31;1.75;;;0.88;;
55655;SDS011;41530;52.382;5.270;2023-02-28T05:22:58;1.75;;;0.80;;
55655;SDS011;41530;52.382;5.270;2023-02-28T05:25:25;3.13;;;0.80;;
55655;SDS011;41530;52.382;5.270;2023-02-28T05:27:52;3.15;;;0.80;;
55655;SDS011;41530;52.382;5.270;2023-02-28T05:30:18;2.05;;;0.80;;
55655;SDS011;41530;52.382;5.270;2023-02-28T05:32:49;1.50;;;0.73;;
55655;SDS011;41530;52.382;5.270;2023-02-28T05:35:17;1.80;;;0.70;;
55655;SDS011;41530;52.382;5.270;2023-02-28T05:37:43;1.98;;;0.90;;
55655;SDS011;41530;52.382;5.270;2023-02-28T05:40:10;1.17;;;0.80;;
55655;SDS011;41530;52.382;5.270;2023-02-28T05:42:37;1.27;;;0.98;;
55655;SDS011;41530;52.382;5.270;2023-02-28T05:45:04;1.80;;;0.93;;
55655;SDS011;41530;52.382;5.270;2023-02-28T05:47:33;2.33;;;1.15;;
55655;SDS011;41530;52.382;5.270;2023-02-28T05:49:59;1.27;;;0.88;;
55655;SDS011;41530;52.382;5.270;2023-02-28T05:52:27;2.25;;;0.85;;
55655;SDS011;41530;52.382;5.270;2023-02-28T05:54:56;1.88;;;1.30;;
55655;SDS011;41530;52.382;5.270;2023-02-28T05:57:22;0.90;;;0.80;;
55655;SDS011;41530;52.382;5.270;2023-02-28T05:59:50;2.17;;;1.02;;
55655;SDS011;41530;52.382;5.270;2023-02-28T06:02:17;1.35;;;0.90;;
55655;SDS011;41530;52.382;5.270;2023-02-28T06:04:44;2.38;;;1.00;;
55655;SDS011;41530;52.382;5.270;2023-02-28T06:07:11;4.28;;;1.02;;
55655;SDS011;41530;52.382;5.270;2023-02-28T06:09:38;1.25;;;0.90;;
55655;SDS011;41530;52.382;5.270;2023-02-28T06:12:05;2.47;;;0.90;;
55655;SDS011;41530;52.382;5.270;2023-02-28T06:14:34;1.58;;;0.82;;
55655;SDS011;41530;52.382;5.270;2023-02-28T06:17:01;2.38;;;1.13;;
55655;SDS011;41530;52.382;5.270;2023-02-28T06:19:29;2.25;;;0.77;;
55655;SDS011;41530;52.382;5.270;2023-02-28T06:21:56;1.33;;;0.93;;
55655;SDS011;41530;52.382;5.270;2023-02-28T06:24:24;1.38;;;0.73;;
55655;SDS011;41530;52.382;5.270;2023-02-28T06:26:54;3.03;;;0.65;;
55655;SDS011;41530;52.382;5.270;2023-02-28T06:29:20;3.60;;;0.73;;
55655;SDS011;41530;52.382;5.270;2023-02-28T06:31:47;2.97;;;0.80;;
55655;SDS011;41530;52.382;5.270;2023-02-28T06:34:14;1.85;;;0.93;;
55655;SDS011;41530;52.382;5.270;2023-02-28T06:36:42;5.25;;;1.20;;
55655;SDS011;41530;52.382;5.270;2023-02-28T06:39:09;2.72;;;0.90;;
55655;SDS011;41530;52.382;5.270;2023-02-28T06:41:36;2.33;;;0.77;;
55655;SDS011;41530;52.382;5.270;2023-02-28T06:44:19;0.60;;;0.60;;
55655;SDS011;41530;52.382;5.270;2023-02-28T06:46:46;2.45;;;0.88;;
55655;SDS011;41530;52.382;5.270;2023-02-28T06:49:13;1.52;;;0.85;;
55655;SDS011;41530;52.382;5.270;2023-02-28T06:51:41;1.50;;;0.90;;
55655;SDS011;41530;52.382;5.270;2023-02-28T06:54:12;2.75;;;0.82;;
55655;SDS011;41530;52.382;5.270;2023-02-28T06:56:39;1.52;;;0.90;;
55655;SDS011;41530;52.382;5.270;2023-02-28T06:59:06;2.47;;;1.30;;
55655;SDS011;41530;52.382;5.270;2023-02-28T07:01:32;2.40;;;0.70;;
55655;SDS011;41530;52.382;5.270;2023-02-28T07:03:59;1.27;;;0.90;;
55655;SDS011;41530;52.382;5.270;2023-02-28T07:06:26;2.28;;;1.02;;
55655;SDS011;41530;52.382;5.270;2023-02-28T07:08:54;1.45;;;0.82;;
55655;SDS011;41530;52.382;5.270;2023-02-28T07:11:21;0.77;;;0.63;;
55655;SDS011;41530;52.382;5.270;2023-02-28T07:13:52;1.52;;;0.70;;
55655;SDS011;41530;52.382;5.270;2023-02-28T07:16:19;1.80;;;0.70;;
55655;SDS011;41530;52.382;5.270;2023-02-28T07:18:47;0.82;;;0.52;;
55655;SDS011;41530;52.382;5.270;2023-02-28T07:21:14;1.58;;;0.68;;
55655;SDS011;41530;52.382;5.270;2023-02-28T07:23:41;1.30;;;0.60;;
55655;SDS011;41530;52.382;5.270;2023-02-28T07:26:11;1.95;;;0.65;;
55655;SDS011;41530;52.382;5.270;2023-02-28T07:28:41;2.55;;;0.70;;
55655;SDS011;41530;52.382;5.270;2023-02-28T07:31:09;3.70;;;0.80;;
55655;SDS011;41530;52.382;5.270;2023-02-28T07:33:36;2.17;;;0.63;;
55655;SDS011;41530;52.382;5.270;2023-02-28T07:36:04;1.38;;;0.50;;
55655;SDS011;41530;52.382;5.270;2023-02-28T07:38:35;3.03;;;0.68;;
55655;SDS011;41530;52.382;5.270;2023-02-28T07:41:03;1.17;;;0.60;;
55655;SDS011;41530;52.382;5.270;2023-02-28T07:43:31;1.08;;;0.70;;
55655;SDS011;41530;52.382;5.270;2023-02-28T07:46:02;0.60;;;0.50;;
55655;SDS011;41530;52.382;5.270;2023-02-28T07:48:29;1.50;;;0.65;;
55655;SDS011;41530;52.382;5.270;2023-02-28T07:50:56;1.17;;;0.65;;
55655;SDS011;41530;52.382;5.270;2023-02-28T07:53:24;1.33;;;0.65;;
55655;SDS011;41530;52.382;5.270;2023-02-28T07:55:51;0.93;;;0.60;;
55655;SDS011;41530;52.382;5.270;2023-02-28T07:58:22;5.05;;;0.50;;
55655;SDS011;41530;52.382;5.270;2023-02-28T08:00:48;1.38;;;0.65;;
55655;SDS011;41530;52.382;5.270;2023-02-28T08:03:16;0.93;;;0.65;;
55655;SDS011;41530;52.382;5.270;2023-02-28T08:05:43;3.05;;;0.75;;
55655;SDS011;41530;52.382;5.270;2023-02-28T08:08:10;1.13;;;0.57;;
55655;SDS011;41530;52.382;5.270;2023-02-28T08:10:37;2.05;;;0.52;;
55655;SDS011;41530;52.382;5.270;2023-02-28T08:13:03;2.80;;;0.60;;
55655;SDS011;41530;52.382;5.270;2023-02-28T08:15:30;3.50;;;0.52;;
55655;SDS011;41530;52.382;5.270;2023-02-28T08:17:57;0.95;;;0.60;;
55655;SDS011;41530;52.382;5.270;2023-02-28T08:20:24;0.75;;;0.60;;
55655;SDS011;41530;52.382;5.270;2023-02-28T08:22:52;2.47;;;0.82;;
55655;SDS011;41530;52.382;5.270;2023-02-28T08:25:18;0.70;;;0.60;;
55655;SDS011;41530;52.382;5.270;2023-02-28T08:27:45;3.47;;;0.70;;
55655;SDS011;41530;52.382;5.270;2023-02-28T08:30:12;0.82;;;0.68;;
55655;SDS011;41530;52.382;5.270;2023-02-28T08:32:40;1.17;;;0.60;;
55655;SDS011;41530;52.382;5.270;2023-02-28T08:35:07;1.48;;;0.60;;
55655;SDS011;41530;52.382;5.270;2023-02-28T08:37:35;1.58;;;0.60;;
55655;SDS011;41530;52.382;5.270;2023-02-28T08:40:02;1.50;;;0.80;;
55655;SDS011;41530;52.382;5.270;2023-02-28T08:42:54;2.30;;;0.95;;
55655;SDS011;41530;52.382;5.270;2023-02-28T08:45:21;1.35;;;0.60;;
55655;SDS011;41530;52.382;5.270;2023-02-28T08:47:47;0.73;;;0.60;;
55655;SDS011;41530;52.382;5.270;2023-02-28T08:50:14;1.15;;;0.50;;
55655;SDS011;41530;52.382;5.270;2023-02-28T08:52:42;1.98;;;0.52;;
55655;SDS011;41530;52.382;5.270;2023-02-28T08:55:09;1.02;;;0.60;;
55655;SDS011;41530;52.382;5.270;2023-02-28T08:57:36;0.57;;;0.55;;
55655;SDS011;41530;52.382;5.270;2023-02-28T09:00:04;0.73;;;0.60;;
55655;SDS011;41530;52.382;5.270;2023-02-28T09:02:31;0.82;;;0.60;;
55655;SDS011;41530;52.382;5.270;2023-02-28T09:04:58;2.22;;;0.47;;
55655;SDS011;41530;52.382;5.270;2023-02-28T09:07:24;0.77;;;0.55;;
55655;SDS011;41530;52.382;5.270;2023-02-28T09:09:51;1.05;;;0.50;;
55655;SDS011;41530;52.382;5.270;2023-02-28T09:12:21;1.27;;;0.60;;
55655;SDS011;41530;52.382;5.270;2023-02-28T09:14:48;1.25;;;0.70;;
55655;SDS011;41530;52.382;5.270;2023-02-28T09:17:15;0.85;;;0.65;;
55655;SDS011;41530;52.382;5.270;2023-02-28T09:19:42;3.92;;;0.70;;
55655;SDS011;41530;52.382;5.270;2023-02-28T09:22:10;0.95;;;0.60;;
55655;SDS011;41530;52.382;5.270;2023-02-28T09:24:37;0.85;;;0.60;;
55655;SDS011;41530;52.382;5.270;2023-02-28T09:27:05;0.50;;;0.50;;
55655;SDS011;41530;52.382;5.270;2023-02-28T09:29:33;1.10;;;0.68;;
55655;SDS011;41530;52.382;5.270;2023-02-28T09:32:00;1.38;;;0.60;;
55655;SDS011;41530;52.382;5.270;2023-02-28T09:34:28;1.70;;;0.93;;
55655;SDS011;41530;52.382;5.270;2023-02-28T09:36:57;4.25;;;0.68;;
55655;SDS011;41530;52.382;5.270;2023-02-28T09:39:24;0.77;;;0.57;;
55655;SDS011;41530;52.382;5.270;2023-02-28T09:41:52;1.05;;;0.60;;
55655;SDS011;41530;52.382;5.270;2023-02-28T09:44:24;0.73;;;0.50;;
55655;SDS011;41530;52.382;5.270;2023-02-28T09:47:05;1.10;;;0.55;;
55655;SDS011;41530;52.382;5.270;2023-02-28T09:49:41;1.17;;;0.63;;
55655;SDS011;41530;52.382;5.270;2023-02-28T09:52:17;0.68;;;0.63;;
55655;SDS011;41530;52.382;5.270;2023-02-28T09:54:46;1.42;;;0.73;;
55655;SDS011;41530;52.382;5.270;2023-02-28T10:03:01;0.75;;;0.50;;
55655;SDS011;41530;52.382;5.270;2023-02-28T10:05:34;0.82;;;0.52;;
55655;SDS011;41530;52.382;5.270;2023-02-28T10:08:27;0.98;;;0.60;;
55655;SDS011;41530;52.382;5.270;2023-02-28T10:11:02;1.13;;;0.60;;
55655;SDS011;41530;52.382;5.270;2023-02-28T10:16:37;1.48;;;0.75;;
55655;SDS011;41530;52.382;5.270;2023-02-28T10:19:23;0.60;;;0.60;;
55655;SDS011;41530;52.382;5.270;2023-02-28T10:24:58;0.60;;;0.50;;
55655;SDS011;41530;52.382;5.270;2023-02-28T10:27:32;0.85;;;0.32;;
55655;SDS011;41530;52.382;5.270;2023-02-28T10:30:00;0.98;;;0.63;;
55655;SDS011;41530;52.382;5.270;2023-02-28T10:37:38;1.38;;;0.50;;
55655;SDS011;41530;52.382;5.270;2023-02-28T10:40:06;0.60;;;0.50;;
55655;SDS011;41530;52.382;5.270;2023-02-28T10:42:57;1.13;;;0.60;;
55655;SDS011;41530;52.382;5.270;2023-02-28T10:45:32;1.88;;;0.50;;
55655;SDS011;41530;52.382;5.270;2023-02-28T10:50:42;1.20;;;0.70;;
55655;SDS011;41530;52.382;5.270;2023-02-28T10:55:42;0.73;;;0.60;;
55655;SDS011;41530;52.382;5.270;2023-02-28T10:58:22;0.60;;;0.50;;
55655;SDS011;41530;52.382;5.270;2023-02-28T11:00:51;1.10;;;0.52;;
55655;SDS011;41530;52.382;5.270;2023-02-28T11:03:23;1.00;;;0.50;;
55655;SDS011;41530;52.382;5.270;2023-02-28T11:05:54;1.00;;;0.77;;
55655;SDS011;41530;52.382;5.270;2023-02-28T11:08:21;0.40;;;0.40;;
55655;SDS011;41530;52.382;5.270;2023-02-28T11:10:58;2.03;;;0.45;;
55655;SDS011;41530;52.382;5.270;2023-02-28T11:13:29;0.95;;;0.57;;
55655;SDS011;41530;52.382;5.270;2023-02-28T11:16:04;0.47;;;0.47;;
55655;SDS011;41530;52.382;5.270;2023-02-28T11:18:39;0.77;;;0.50;;
55655;SDS011;41530;52.382;5.270;2023-02-28T11:23:53;0.82;;;0.50;;
55655;SDS011;41530;52.382;5.270;2023-02-28T11:29:12;1.77;;;0.40;;
55655;SDS011;41530;52.382;5.270;2023-02-28T11:32:01;0.40;;;0.40;;
55655;SDS011;41530;52.382;5.270;2023-02-28T11:34:38;0.75;;;0.52;;
55655;SDS011;41530;52.382;5.270;2023-02-28T11:37:09;4.47;;;0.43;;
55655;SDS011;41530;52.382;5.270;2023-02-28T11:39:39;0.75;;;0.43;;
55655;SDS011;41530;52.382;5.270;2023-02-28T11:53:39;0.43;;;0.40;;
55655;SDS011;41530;52.382;5.270;2023-02-28T11:56:25;1.20;;;0.52;;
55655;SDS011;41530;52.382;5.270;2023-02-28T12:01:36;0.80;;;0.60;;
55655;SDS011;41530;52.382;5.270;2023-02-28T12:04:24;1.02;;;0.38;;
55655;SDS011;41530;52.382;5.270;2023-02-28T12:10:05;1.30;;;0.60;;
55655;SDS011;41530;52.382;5.270;2023-02-28T12:15:41;0.30;;;0.30;;
55655;SDS011;41530;52.382;5.270;2023-02-28T12:20:54;0.50;;;0.30;;
55655;SDS011;41530;52.382;5.270;2023-02-28T12:26:34;0.50;;;0.40;;
55655;SDS011;41530;52.382;5.270;2023-02-28T12:29:25;1.02;;;0.50;;
55655;SDS011;41530;52.382;5.270;2023-02-28T12:31:56;0.80;;;0.47;;
55655;SDS011;41530;52.382;5.270;2023-02-28T12:34:36;0.57;;;0.40;;
55655;SDS011;41530;52.382;5.270;2023-02-28T12:37:09;1.10;;;0.60;;
55655;SDS011;41530;52.382;5.270;2023-02-28T12:39:42;0.88;;;0.32;;
55655;SDS011;41530;52.382;5.270;2023-02-28T12:42:24;0.80;;;0.43;;
55655;SDS011;41530;52.382;5.270;2023-02-28T12:44:59;0.70;;;0.50;;
55655;SDS011;41530;52.382;5.270;2023-02-28T12:47:28;0.43;;;0.38;;
55655;SDS011;41530;52.382;5.270;2023-02-28T13:03:52;0.80;;;0.40;;
55655;SDS011;41530;52.382;5.270;2023-02-28T13:09:21;1.27;;;0.50;;
55655;SDS011;41530;52.382;5.270;2023-02-28T13:11:48;1.10;;;0.40;;
55655;SDS011;41530;52.382;5.270;2023-02-28T13:14:24;0.40;;;0.30;;
55655;SDS011;41530;52.382;5.270;2023-02-28T13:16:56;0.30;;;0.30;;
55655;SDS011;41530;52.382;5.270;2023-02-28T13:19:26;0.30;;;0.30;;
55655;SDS011;41530;52.382;5.270;2023-02-28T13:21:55;0.45;;;0.25;;
55655;SDS011;41530;52.382;5.270;2023-02-28T13:29:35;0.88;;;0.50;;
55655;SDS011;41530;52.382;5.270;2023-02-28T13:39:56;0.35;;;0.30;;
55655;SDS011;41530;52.382;5.270;2023-02-28T13:50:14;0.60;;;0.30;;
55655;SDS011;41530;52.382;5.270;2023-02-28T14:02:09;0.40;;;0.30;;
55655;SDS011;41530;52.382;5.270;2023-02-28T14:05:01;0.40;;;0.40;;
55655;SDS011;41530;52.382;5.270;2023-02-28T14:07:35;0.30;;;0.30;;
55655;SDS011;41530;52.382;5.270;2023-02-28T14:10:28;0.63;;;0.30;;
55655;SDS011;41530;52.382;5.270;2023-02-28T14:21:03;0.40;;;0.40;;
55655;SDS011;41530;52.382;5.270;2023-02-28T14:23:46;1.45;;;0.30;;
55655;SDS011;41530;52.382;5.270;2023-02-28T14:37:52;0.38;;;0.30;;
55655;SDS011;41530;52.382;5.270;2023-02-28T14:40:27;0.20;;;0.20;;
55655;SDS011;41530;52.382;5.270;2023-02-28T14:42:58;0.20;;;0.20;;
55655;SDS011;41530;52.382;5.270;2023-02-28T14:45:27;0.30;;;0.30;;
55655;SDS011;41530;52.382;5.270;2023-02-28T14:47:56;0.35;;;0.32;;
55655;SDS011;41530;52.382;5.270;2023-02-28T14:50:35;0.40;;;0.40;;
55655;SDS011;41530;52.382;5.270;2023-02-28T14:53:03;0.57;;;0.38;;
55655;SDS011;41530;52.382;5.270;2023-02-28T14:55:36;0.47;;;0.40;;
55655;SDS011;41530;52.382;5.270;2023-02-28T14:58:04;0.40;;;0.30;;
55655;SDS011;41530;52.382;5.270;2023-02-28T15:00:33;0.60;;;0.35;;
55655;SDS011;41530;52.382;5.270;2023-02-28T15:08:44;0.98;;;0.30;;
55655;SDS011;41530;52.382;5.270;2023-02-28T15:11:15;0.20;;;0.20;;
55655;SDS011;41530;52.382;5.270;2023-02-28T15:13:52;0.60;;;0.40;;
55655;SDS011;41530;52.382;5.270;2023-02-28T15:16:22;0.43;;;0.20;;
55655;SDS011;41530;52.382;5.270;2023-02-28T15:18:59;0.70;;;0.40;;
55655;SDS011;41530;52.382;5.270;2023-02-28T15:21:35;0.30;;;0.30;;
55655;SDS011;41530;52.382;5.270;2023-02-28T15:24:11;1.05;;;0.60;;
55655;SDS011;41530;52.382;5.270;2023-02-28T15:26:45;0.82;;;0.32;;
55655;SDS011;41530;52.382;5.270;2023-02-28T15:29:17;0.30;;;0.30;;
55655;SDS011;41530;52.382;5.270;2023-02-28T15:31:50;1.77;;;0.25;;
55655;SDS011;41530;52.382;5.270;2023-02-28T15:37:06;0.30;;;0.30;;
55655;SDS011;41530;52.382;5.270;2023-02-28T15:39:51;0.52;;;0.25;;
55655;SDS011;41530;52.382;5.270;2023-02-28T15:42:20;0.52;;;0.40;;
55655;SDS011;41530;52.382;5.270;2023-02-28T15:44:49;0.32;;;0.32;;
55655;SDS011;41530;52.382;5.270;2023-02-28T15:47:19;0.40;;;0.32;;
55655;SDS011;41530;52.382;5.270;2023-02-28T15:49:52;0.70;;;0.40;;
55655;SDS011;41530;52.382;5.270;2023-02-28T15:52:24;0.40;;;0.40;;
55655;SDS011;41530;52.382;5.270;2023-02-28T15:54:54;0.45;;;0.30;;
55655;SDS011;41530;52.382;5.270;2023-02-28T15:57:22;0.22;;;0.22;;
55655;SDS011;41530;52.382;5.270;2023-02-28T15:59:54;0.50;;;0.43;;
55655;SDS011;41530;52.382;5.270;2023-02-28T16:07:35;0.30;;;0.30;;
55655;SDS011;41530;52.382;5.270;2023-02-28T16:10:05;0.38;;;0.38;;
55655;SDS011;41530;52.382;5.270;2023-02-28T16:12:36;1.02;;;0.32;;
55655;SDS011;41530;52.382;5.270;2023-02-28T16:15:21;0.77;;;0.30;;
55655;SDS011;41530;52.382;5.270;2023-02-28T16:17:48;0.43;;;0.30;;
55655;SDS011;41530;52.382;5.270;2023-02-28T16:20:20;0.40;;;0.38;;
55655;SDS011;41530;52.382;5.270;2023-02-28T16:22:48;1.48;;;0.40;;
55655;SDS011;41530;52.382;5.270;2023-02-28T16:25:16;0.40;;;0.40;;
55655;SDS011;41530;52.382;5.270;2023-02-28T16:27:45;0.85;;;0.40;;
55655;SDS011;41530;52.382;5.270;2023-02-28T16:30:26;0.63;;;0.40;;
55655;SDS011;41530;52.382;5.270;2023-02-28T16:32:54;0.63;;;0.30;;
55655;SDS011;41530;52.382;5.270;2023-02-28T16:35:22;0.30;;;0.30;;
55655;SDS011;41530;52.382;5.270;2023-02-28T16:37:50;0.40;;;0.40;;
55655;SDS011;41530;52.382;5.270;2023-02-28T16:40:19;0.50;;;0.40;;
55655;SDS011;41530;52.382;5.270;2023-02-28T16:42:52;0.40;;;0.30;;
55655;SDS011;41530;52.382;5.270;2023-02-28T16:45:22;0.75;;;0.40;;
55655;SDS011;41530;52.382;5.270;2023-02-28T16:47:51;0.20;;;0.20;;
55655;SDS011;41530;52.382;5.270;2023-02-28T16:50:24;0.30;;;0.30;;
55655;SDS011;41530;52.382;5.270;2023-02-28T16:52:55;0.40;;;0.30;;
55655;SDS011;41530;52.382;5.270;2023-02-28T16:55:23;1.15;;;0.40;;
55655;SDS011;41530;52.382;5.270;2023-02-28T16:57:54;0.30;;;0.30;;
55655;SDS011;41530;52.382;5.270;2023-02-28T17:00:22;1.80;;;0.40;;
55655;SDS011;41530;52.382;5.270;2023-02-28T17:02:50;1.40;;;0.30;;
55655;SDS011;41530;52.382;5.270;2023-02-28T17:05:17;0.85;;;0.40;;
55655;SDS011;41530;52.382;5.270;2023-02-28T17:07:45;0.40;;;0.40;;
55655;SDS011;41530;52.382;5.270;2023-02-28T17:10:17;0.40;;;0.30;;
55655;SDS011;41530;52.382;5.270;2023-02-28T17:12:45;0.30;;;0.30;;
55655;SDS011;41530;52.382;5.270;2023-02-28T17:15:13;0.47;;;0.40;;
55655;SDS011;41530;52.382;5.270;2023-02-28T17:17:42;1.25;;;0.50;;
55655;SDS011;41530;52.382;5.270;2023-02-28T17:20:13;2.88;;;0.80;;
55655;SDS011;41530;52.382;5.270;2023-02-28T17:22:42;2.67;;;0.65;;
55655;SDS011;41530;52.382;5.270;2023-02-28T17:25:09;0.73;;;0.40;;
55655;SDS011;41530;52.382;5.270;2023-02-28T17:27:36;0.47;;;0.40;;
55655;SDS011;41530;52.382;5.270;2023-02-28T17:30:09;0.57;;;0.50;;
55655;SDS011;41530;52.382;5.270;2023-02-28T17:32:41;0.80;;;0.40;;
55655;SDS011;41530;52.382;5.270;2023-02-28T17:35:08;1.05;;;0.50;;
55655;SDS011;41530;52.382;5.270;2023-02-28T17:37:35;1.77;;;0.50;;
55655;SDS011;41530;52.382;5.270;2023-02-28T17:40:02;0.65;;;0.40;;
55655;SDS011;41530;52.382;5.270;2023-02-28T17:42:29;1.63;;;0.50;;
55655;SDS011;41530;52.382;5.270;2023-02-28T17:44:56;1.25;;;0.40;;
55655;SDS011;41530;52.382;5.270;2023-02-28T17:47:23;0.93;;;0.43;;
55655;SDS011;41530;52.382;5.270;2023-02-28T17:49:49;1.17;;;0.60;;
55655;SDS011;41530;52.382;5.270;2023-02-28T17:52:16;0.70;;;0.60;;
55655;SDS011;41530;52.382;5.270;2023-02-28T17:54:42;0.93;;;0.50;;
55655;SDS011;41530;52.382;5.270;2023-02-28T17:57:15;0.40;;;0.40;;
55655;SDS011;41530;52.382;5.270;2023-02-28T17:59:42;0.90;;;0.65;;
55655;SDS011;41530;52.382;5.270;2023-02-28T18:02:11;0.50;;;0.50;;
55655;SDS011;41530;52.382;5.270;2023-02-28T18:04:39;0.73;;;0.50;;
55655;SDS011;41530;52.382;5.270;2023-02-28T18:07:06;0.70;;;0.40;;
55655;SDS011;41530;52.382;5.270;2023-02-28T18:09:37;0.30;;;0.30;;